createdAt,value
2022-10-19T00:00:44.897Z,32.07
2022-10-19T00:05:52.242Z,32.13
2022-10-19T00:10:57.129Z,35.23
2022-10-19T00:16:02.256Z,34.67
2022-10-19T00:21:12.180Z,32.47
2022-10-19T00:26:17.607Z,28.03
2022-10-19T00:31:22.379Z,31.23
2022-10-19T00:36:32.481Z,29.67
2022-10-19T00:41:39.425Z,30.17
2022-10-19T00:46:46.540Z,31.43
2022-10-19T00:51:56.641Z,29.87
2022-10-19T00:57:02.634Z,32.47
2022-10-19T01:02:08.689Z,31.27
2022-10-19T01:07:16.814Z,28.97
2022-10-19T01:12:50.405Z,30.20
2022-10-19T01:18:03.752Z,28.00
2022-10-19T01:23:34.197Z,29.27
2022-10-19T01:28:55.051Z,32.07
2022-10-19T01:34:11.049Z,29.60
2022-10-19T01:39:24.126Z,26.67
2022-10-19T01:44:34.329Z,26.47
2022-10-19T01:49:46.619Z,26.87
2022-10-19T01:54:55.243Z,25.20
2022-10-19T02:00:07.358Z,27.93
2022-10-19T02:05:22.260Z,30.97
2022-10-19T02:10:28.359Z,28.13
2022-10-19T02:15:38.395Z,28.63
2022-10-19T02:20:46.014Z,27.93
2022-10-19T02:25:51.376Z,24.93
2022-10-19T02:30:56.535Z,24.80
2022-10-19T02:36:04.341Z,24.60
2022-10-19T02:41:20.860Z,22.27
2022-10-19T02:46:29.235Z,23.43
2022-10-19T02:51:38.985Z,20.93
2022-10-19T02:56:44.178Z,21.43
2022-10-19T03:01:49.136Z,19.07
2022-10-19T03:06:57.042Z,14.77
2022-10-19T03:12:01.908Z,22.77
2022-10-19T03:17:07.285Z,18.53
2022-10-19T03:22:16.188Z,17.03
2022-10-19T03:27:21.085Z,22.03
2022-10-19T03:32:28.278Z,16.40
2022-10-19T03:37:38.279Z,20.97
2022-10-19T03:42:43.256Z,25.93
2022-10-19T03:47:52.241Z,16.43
2022-10-19T03:53:00.716Z,18.07
2022-10-19T03:58:05.766Z,18.57
2022-10-19T04:03:10.750Z,17.37
2022-10-19T04:08:18.461Z,19.57
2022-10-19T04:13:23.299Z,18.67
2022-10-19T04:18:29.894Z,19.27
2022-10-19T04:23:39.170Z,22.83
2022-10-19T04:28:44.230Z,24.40
2022-10-19T04:33:49.154Z,21.90
2022-10-19T04:38:56.655Z,21.53
2022-10-19T04:44:03.176Z,20.43
2022-10-19T04:49:08.022Z,17.83
2022-10-19T04:54:15.453Z,16.03
2022-10-19T04:59:20.251Z,20.97
2022-10-19T05:04:25.215Z,15.27
2022-10-19T05:09:32.832Z,19.57
2022-10-19T05:14:40.468Z,20.77
2022-10-19T05:19:47.619Z,21.50
2022-10-19T05:24:58.061Z,17.70
2022-10-19T05:30:03.142Z,16.37
2022-10-19T05:35:08.803Z,17.67
2022-10-19T05:40:16.370Z,18.13
2022-10-19T05:45:21.425Z,20.60
2022-10-19T05:50:26.518Z,18.27
2022-10-19T05:55:37.530Z,16.53
2022-10-19T06:00:42.590Z,21.27
2022-10-19T06:05:47.609Z,17.00
2022-10-19T06:10:55.393Z,14.73
2022-10-19T06:16:00.699Z,19.40
2022-10-19T06:21:06.941Z,14.67
2022-10-19T06:26:17.511Z,10.10
2022-10-19T06:31:22.379Z,13.13
2022-10-19T06:36:30.163Z,12.87
2022-10-19T06:41:39.401Z,11.03
2022-10-19T06:46:56.335Z,15.43
2022-10-19T06:52:01.191Z,15.67
2022-10-19T06:57:08.902Z,10.87
2022-10-19T07:02:14.258Z,13.93
2022-10-19T07:07:19.128Z,9.63
2022-10-19T07:12:29.223Z,18.63
2022-10-19T07:17:34.374Z,10.57
2022-10-19T07:22:39.828Z,15.93
2022-10-19T07:27:47.252Z,11.47
2022-10-19T07:32:52.329Z,9.63
2022-10-19T07:37:57.177Z,11.23
2022-10-19T07:43:04.893Z,13.10
2022-10-19T07:48:09.858Z,12.30
2022-10-19T07:53:14.610Z,12.53
2022-10-19T07:58:22.169Z,14.43
2022-10-19T08:08:52.690Z,17.33
2022-10-19T08:14:03.039Z,5.97
2022-10-19T08:19:10.038Z,12.13
2022-10-19T08:24:17.139Z,9.80
2022-10-19T08:29:26.638Z,8.93
2022-10-19T08:34:34.223Z,7.70
2022-10-19T08:39:39.060Z,12.40
2022-10-19T08:45:10.490Z,8.47
2022-10-19T08:50:22.943Z,11.10
2022-10-19T08:55:34.051Z,10.10
2022-10-19T09:00:46.374Z,6.50
2022-10-19T09:05:56.575Z,8.60
2022-10-19T09:11:01.992Z,12.23
2022-10-19T09:16:14.736Z,9.83
2022-10-19T09:21:31.080Z,9.50
2022-10-19T09:26:53.753Z,11.17
2022-10-19T09:32:03.718Z,5.83
2022-10-19T09:37:08.635Z,3.83
2022-10-19T09:42:20.867Z,7.23
2022-10-19T09:47:38.222Z,5.13
2022-10-19T09:52:45.286Z,6.87
2022-10-19T09:57:51.763Z,8.43
2022-10-19T10:02:59.720Z,7.47
2022-10-19T10:08:04.964Z,5.33
2022-10-19T10:13:09.853Z,3.93
2022-10-19T10:18:21.418Z,5.47
2022-10-19T10:23:28.348Z,6.23
2022-10-19T10:28:34.067Z,9.10
2022-10-19T10:33:45.610Z,5.57
2022-10-19T10:38:58.752Z,9.23
2022-10-19T10:44:08.376Z,6.07
2022-10-19T10:49:25.153Z,4.17
2022-10-19T10:54:32.735Z,5.27
2022-10-19T10:59:45.624Z,6.00
2022-10-19T11:04:58.386Z,5.90
2022-10-19T11:10:09.993Z,4.23
2022-10-19T11:15:23.502Z,11.13
2022-10-19T11:20:35.252Z,3.03
2022-10-19T11:25:51.911Z,8.27
2022-10-19T11:31:04.412Z,5.37
2022-10-19T11:36:20.538Z,1.10
2022-10-19T11:41:35.588Z,3.60
2022-10-19T11:46:50.050Z,5.30
2022-10-19T11:52:04.665Z,4.33
2022-10-19T11:57:16.491Z,2.53
2022-10-19T12:02:50.883Z,2.47
2022-10-19T12:08:15.328Z,2.93
2022-10-19T12:13:24.968Z,1.20
2022-10-19T12:18:39.482Z,5.60
2022-10-19T12:23:49.028Z,4.00
2022-10-19T12:28:58.431Z,2.07
2022-10-19T12:34:10.630Z,2.63
2022-10-19T12:39:24.578Z,5.80
2022-10-19T12:44:59.933Z,2.13
2022-10-19T12:50:05.011Z,5.23
2022-10-19T12:55:27.953Z,0.57
2022-10-19T13:00:35.409Z,1.30
2022-10-19T13:05:41.778Z,2.40
2022-10-19T13:11:06.871Z,2.83
2022-10-19T13:16:43.152Z,1.43
2022-10-19T13:22:25.797Z,1.73
2022-10-19T13:27:40.307Z,1.33
2022-10-19T13:32:47.477Z,3.00
2022-10-19T13:38:27.811Z,3.13
2022-10-19T13:43:37.567Z,1.33
2022-10-19T13:49:07.055Z,0.50
2022-10-19T13:54:25.229Z,2.37
2022-10-19T13:59:56.651Z,3.20
2022-10-19T14:05:19.792Z,1.47
2022-10-19T14:10:32.925Z,4.20
2022-10-19T14:15:40.758Z,2.27
2022-10-19T14:20:46.222Z,4.37
2022-10-19T14:25:57.076Z,0.60
2022-10-19T14:31:08.098Z,9.00
2022-10-19T14:36:20.039Z,2.47
2022-10-19T14:46:41.113Z,2.93
2022-10-19T14:51:51.886Z,2.03
2022-10-19T14:57:00.873Z,0.87
2022-10-19T15:02:18.306Z,1.53
2022-10-19T15:07:27.474Z,1.13
2022-10-19T15:12:38.091Z,4.10
2022-10-19T15:17:55.239Z,1.43
2022-10-19T15:23:01.420Z,1.03
2022-10-19T15:28:22.310Z,2.30
2022-10-19T15:33:30.234Z,2.50
2022-10-19T15:38:35.283Z,4.63
2022-10-19T15:43:46.807Z,8.73
2022-10-19T15:48:55.594Z,2.87
2022-10-19T15:54:02.276Z,5.03
2022-10-19T15:59:10.147Z,3.43
2022-10-19T16:04:18.446Z,4.13
2022-10-19T16:09:24.896Z,4.67
2022-10-19T16:14:33.038Z,3.47
2022-10-19T16:19:43.597Z,3.40
2022-10-19T16:24:48.653Z,5.67
2022-10-19T16:29:54.686Z,4.90
2022-10-19T16:35:02.035Z,4.27
2022-10-19T16:40:08.013Z,4.63
2022-10-19T16:45:14.156Z,4.63
2022-10-19T16:50:22.713Z,3.40
2022-10-19T16:55:31.584Z,6.27
2022-10-19T17:00:36.812Z,4.57
2022-10-19T17:05:44.342Z,8.40
2022-10-19T17:10:49.295Z,5.90
2022-10-19T17:15:54.025Z,10.93
2022-10-19T17:21:06.543Z,5.53
2022-10-19T17:26:12.336Z,4.10
2022-10-19T17:31:17.777Z,2.07
2022-10-19T17:36:27.677Z,3.77
2022-10-19T17:41:32.747Z,5.97
2022-10-19T17:46:39.186Z,5.43
2022-10-19T17:51:46.677Z,7.73
2022-10-19T17:56:51.590Z,9.00
2022-10-19T18:01:56.463Z,12.13
2022-10-19T18:07:03.875Z,16.73
2022-10-19T18:12:13.563Z,16.40
2022-10-19T18:17:18.384Z,17.13
2022-10-19T18:22:25.701Z,12.90
2022-10-19T18:27:33.843Z,16.40
2022-10-19T18:32:39.042Z,15.43
2022-10-19T18:37:46.528Z,15.63
2022-10-19T18:42:51.333Z,15.17
2022-10-19T18:47:59.512Z,26.30
2022-10-19T18:53:06.829Z,35.60
2022-10-19T18:58:12.278Z,42.83
2022-10-19T19:03:20.717Z,57.27
2022-10-19T19:08:28.724Z,37.87
2022-10-19T19:13:33.936Z,23.10
2022-10-19T19:18:39.035Z,15.53
2022-10-19T19:23:47.178Z,11.63
2022-10-19T19:28:52.482Z,13.80
2022-10-19T19:33:57.390Z,17.13
2022-10-19T19:39:07.292Z,16.53
2022-10-19T19:44:12.347Z,17.23
2022-10-19T19:49:17.627Z,18.47
2022-10-19T19:54:25.735Z,16.07
2022-10-19T19:59:30.773Z,15.57
2022-10-19T20:04:35.650Z,20.00
2022-10-19T20:09:43.112Z,20.00
2022-10-19T20:14:47.993Z,27.70
2022-10-19T20:19:52.962Z,15.27
2022-10-19T20:25:00.373Z,15.90
2022-10-19T20:30:05.368Z,12.70
2022-10-19T20:35:10.792Z,13.70
2022-10-19T20:40:18.768Z,13.60
2022-10-19T20:45:23.628Z,17.07
2022-10-19T20:50:28.504Z,16.80
2022-10-19T20:55:35.993Z,13.10
2022-10-19T21:00:40.784Z,11.13
2022-10-19T21:05:45.772Z,8.37
2022-10-19T21:10:53.043Z,10.07
2022-10-19T21:15:57.791Z,9.40
2022-10-19T21:21:03.009Z,11.13
2022-10-19T21:26:10.729Z,8.90
2022-10-19T21:31:15.974Z,11.97
2022-10-19T21:36:22.281Z,8.43
2022-10-19T21:41:31.007Z,10.30
2022-10-19T21:46:35.914Z,6.33
2022-10-19T21:51:44.538Z,8.80
2022-10-19T21:56:53.369Z,9.40
2022-10-19T22:01:59.342Z,7.07
2022-10-19T22:07:05.324Z,8.07
2022-10-19T22:17:37.446Z,5.83
2022-10-19T22:22:42.188Z,6.73
2022-10-19T22:27:49.703Z,6.77
2022-10-19T22:32:54.756Z,6.53
2022-10-19T22:37:59.634Z,8.27
2022-10-19T22:43:07.030Z,12.73
2022-10-19T22:48:11.946Z,6.47
2022-10-19T22:53:16.767Z,5.30
2022-10-19T22:58:24.339Z,8.63
2022-10-19T23:03:29.095Z,9.87
2022-10-19T23:08:34.139Z,10.20
2022-10-19T23:13:41.951Z,9.27
2022-10-19T23:18:46.700Z,6.77
2022-10-19T23:23:51.557Z,15.97
2022-10-19T23:28:59.065Z,7.57
2022-10-19T23:34:03.991Z,5.70
2022-10-19T23:39:09.415Z,9.20
2022-10-19T23:44:16.784Z,8.23
2022-10-19T23:49:21.565Z,7.07
2022-10-19T23:54:27.075Z,8.03
2022-10-19T23:59:34.499Z,14.33
